Accueil
METAR-TAF:

METAR-TAF

Aéroports :

Aéroport de Newquay Cornouailles

Newquay Cornwall, Angleterre

latitude: 50-26N, longitude: 005-00W, altitude: 119 m

Observation

Le bulletin a été fait il y a 20 minutes, à 22:20 UTC
Vent 2 kt de direction variable
Température 4°C
Humidité 81%
Pression 1024 hPa
Visibilité 10 km ou plus

METAR: EGHQ 082220Z AUTO VRB02KT 9999 NCD 04/01 Q1024

Heure: 22:40 (22:40 UTC)

Prévision

Le bulletin a été fait il y a 2 heures et 42 minutes, à 19:58 UTC
Prévision valable du 08 à 21 UTC au 09 à 06 UTC
Vent 5 kt de nord/nord-ouest
Visibilité 10 km ou plus
Quelques nuages à une hauteur de 3000 ft

TAF: EGHQ 081958Z 0821/0906 34005KT 9999 FEW030

Observations et prévisions météorologiques de plus de 4000 aéroports (messages METAR et TAF).

Les stations disponibles sont représentées par des disques jaunes et rouges sur la carte.

Passer la souris dessus pour voir le nom de la station.

Cliquer dessus pour voir les observations et prévisions météorologiques.

Pour changer de carte: cliquez sur les boutons verts avec une croix noire pour zoomer, sur le bouton vert avec un tiret pour effectuer un zoom arrière, ou sur les flèches vertes pour les cartes adjacentes.


METAR-TAF: